createdAt,value
2024-03-05T00:01:11.564Z,3.80
2024-03-05T00:03:38.722Z,3.90
2024-03-05T00:06:07.578Z,3.80
2024-03-05T00:08:34.720Z,3.80
2024-03-05T00:11:02.034Z,3.80
2024-03-05T00:13:29.105Z,3.80
2024-03-05T00:15:59.065Z,3.80
2024-03-05T00:18:26.346Z,3.80
2024-03-05T00:20:53.601Z,3.80
2024-03-05T00:23:20.525Z,3.80
2024-03-05T00:25:47.557Z,3.80
2024-03-05T00:28:15.926Z,3.70
2024-03-05T00:30:42.899Z,3.70
2024-03-05T00:33:10.175Z,3.70
2024-03-05T00:35:43.185Z,3.70
2024-03-05T00:38:18.337Z,3.60
2024-03-05T00:40:50.800Z,3.60
2024-03-05T00:43:17.956Z,3.60
2024-03-05T00:45:46.424Z,3.60
2024-03-05T00:48:13.600Z,3.60
2024-03-05T00:50:41.802Z,3.60
2024-03-05T00:53:09.134Z,3.60
2024-03-05T00:55:38.641Z,3.60
2024-03-05T00:58:06.100Z,3.60
2024-03-05T01:00:34.887Z,3.60
2024-03-05T01:03:01.954Z,3.50
2024-03-05T01:05:29.102Z,3.50
2024-03-05T01:07:56.162Z,3.50
2024-03-05T01:10:23.325Z,3.40
2024-03-05T01:12:51.133Z,3.40
2024-03-05T01:15:18.205Z,3.40
2024-03-05T01:17:45.133Z,3.50
2024-03-05T01:20:17.418Z,3.50
2024-03-05T01:22:44.583Z,3.50
2024-03-05T01:25:12.502Z,3.40
2024-03-05T01:27:42.451Z,3.40
2024-03-05T01:30:12.526Z,3.30
2024-03-05T01:32:40.360Z,3.30
2024-03-05T01:35:11.762Z,3.20
2024-03-05T01:37:39.223Z,3.20
2024-03-05T01:40:07.392Z,3.20
2024-03-05T01:42:34.865Z,3.20
2024-03-05T01:45:01.884Z,3.10
2024-03-05T01:47:30.165Z,3.10
2024-03-05T01:49:57.458Z,3.10
2024-03-05T01:52:27.062Z,3.10
2024-03-05T01:54:59.944Z,3.10
2024-03-05T01:57:28.308Z,3.10
2024-03-05T01:59:55.398Z,3.20
2024-03-05T02:02:24.588Z,3.10
2024-03-05T02:04:54.241Z,3.10
2024-03-05T02:07:24.085Z,3.10
2024-03-05T02:09:53.667Z,3.00
2024-03-05T02:12:21.267Z,3.00
2024-03-05T02:14:55.237Z,3.00
2024-03-05T02:17:22.760Z,2.90
2024-03-05T02:19:52.285Z,3.00
2024-03-05T02:22:19.984Z,2.90
2024-03-05T02:24:46.960Z,2.90
2024-03-05T02:27:20.334Z,2.90
2024-03-05T02:29:53.512Z,2.90
2024-03-05T02:32:20.619Z,2.90
2024-03-05T02:34:48.445Z,2.90
2024-03-05T02:37:16.080Z,2.90
2024-03-05T02:39:44.157Z,2.90
2024-03-05T02:42:11.446Z,2.90
2024-03-05T02:44:38.631Z,2.90
2024-03-05T02:47:06.034Z,2.90
2024-03-05T02:49:35.589Z,2.90
2024-03-05T02:52:04.409Z,2.90
2024-03-05T02:54:33.776Z,2.80
2024-03-05T02:57:01.016Z,2.80
2024-03-05T02:59:28.962Z,2.80
2024-03-05T03:01:55.911Z,2.80
2024-03-05T03:04:23.034Z,2.80
2024-03-05T03:06:50.120Z,2.70
2024-03-05T03:09:17.317Z,2.70
2024-03-05T03:11:49.181Z,2.70
2024-03-05T03:14:16.800Z,2.70
2024-03-05T03:16:45.199Z,2.70
2024-03-05T03:19:12.661Z,2.60
2024-03-05T03:21:39.683Z,2.60
2024-03-05T03:24:06.828Z,2.60
2024-03-05T03:26:34.460Z,2.60
2024-03-05T03:29:01.800Z,2.60
2024-03-05T03:31:29.024Z,2.60
2024-03-05T03:33:57.187Z,2.60
2024-03-05T03:36:27.687Z,2.50
2024-03-05T03:38:55.222Z,2.50
2024-03-05T03:41:29.191Z,2.50
2024-03-05T03:43:56.408Z,2.50
2024-03-05T03:46:23.602Z,2.60
2024-03-05T03:48:50.687Z,2.60
2024-03-05T03:51:19.089Z,2.60
2024-03-05T03:53:48.488Z,2.60
2024-03-05T03:56:18.320Z,2.60
2024-03-05T03:58:45.266Z,2.70
2024-03-05T04:01:12.351Z,2.70
2024-03-05T04:03:40.979Z,2.70
2024-03-05T04:06:08.076Z,2.80
2024-03-05T04:08:35.364Z,2.80
2024-03-05T04:11:03.280Z,2.90
2024-03-05T04:13:30.416Z,2.90
2024-03-05T04:15:57.438Z,3.00
2024-03-05T04:18:28.139Z,3.10
2024-03-05T04:20:55.093Z,3.20
2024-03-05T04:23:23.081Z,3.20
2024-03-05T04:25:51.623Z,3.30
2024-03-05T04:28:21.566Z,3.30
2024-03-05T04:30:50.070Z,3.30
2024-03-05T04:33:18.462Z,3.40
2024-03-05T04:35:45.741Z,3.50
2024-03-05T04:38:12.900Z,3.50
2024-03-05T04:40:41.514Z,3.60
2024-03-05T04:43:21.785Z,3.60
2024-03-05T04:45:49.479Z,3.70
2024-03-05T04:48:16.657Z,3.70
2024-03-05T04:50:44.026Z,3.80
2024-03-05T04:53:10.992Z,3.80
2024-03-05T04:55:38.023Z,3.90
2024-03-05T04:58:06.811Z,3.90
2024-03-05T05:00:33.992Z,3.90
2024-03-05T05:03:04.404Z,4.00
2024-03-05T05:05:34.291Z,4.00
2024-03-05T05:08:01.782Z,4.10
2024-03-05T05:10:30.635Z,4.10
2024-03-05T05:12:57.763Z,4.20
2024-03-05T05:15:25.240Z,4.20
2024-03-05T05:17:55.393Z,4.20
2024-03-05T05:20:23.135Z,4.20
2024-03-05T05:22:50.226Z,4.20
2024-03-05T05:25:18.300Z,4.20
2024-03-05T05:27:45.246Z,4.20
2024-03-05T05:30:14.476Z,4.20
2024-03-05T05:32:42.194Z,4.20
2024-03-05T05:35:11.269Z,4.30
2024-03-05T05:37:38.683Z,4.30
2024-03-05T05:40:07.101Z,4.30
2024-03-05T05:42:34.411Z,4.30
2024-03-05T05:45:01.983Z,4.30
2024-03-05T05:47:29.150Z,4.30
2024-03-05T05:49:56.410Z,4.30
2024-03-05T05:52:23.970Z,4.40
2024-03-05T05:54:51.308Z,4.40
2024-03-05T05:57:19.350Z,4.50
2024-03-05T05:59:46.529Z,4.50
2024-03-05T06:02:14.681Z,4.60
2024-03-05T06:05:03.427Z,4.70
2024-03-05T06:07:34.374Z,4.70
2024-03-05T06:10:01.345Z,4.80
2024-03-05T06:12:28.899Z,4.80
2024-03-05T06:14:55.824Z,4.80
2024-03-05T06:17:25.459Z,4.80
2024-03-05T06:19:52.643Z,4.90
2024-03-05T06:22:27.139Z,4.90
2024-03-05T07:00:43.315Z,5.50
2024-03-05T07:03:13.304Z,5.50
2024-03-05T07:05:40.330Z,5.60
2024-03-05T07:08:10.258Z,5.60
2024-03-05T07:10:37.275Z,5.70
2024-03-05T07:13:04.656Z,5.70
2024-03-05T07:15:31.846Z,5.80
2024-03-05T07:17:58.796Z,5.90
2024-03-05T07:20:28.937Z,5.90
2024-03-05T07:22:57.345Z,6.00
2024-03-05T07:25:24.383Z,6.00
2024-03-05T07:27:51.973Z,6.10
2024-03-05T07:30:23.030Z,6.20
2024-03-05T07:32:50.316Z,6.20
2024-03-05T07:35:18.878Z,6.30
2024-03-05T07:37:47.822Z,6.30
2024-03-05T07:40:21.874Z,6.30
2024-03-05T07:42:55.116Z,6.30
2024-03-05T07:45:24.216Z,6.40
2024-03-05T07:47:52.369Z,6.50
2024-03-05T07:50:19.416Z,6.50
2024-03-05T07:52:48.209Z,6.60
2024-03-05T07:55:26.154Z,6.70
2024-03-05T07:57:58.490Z,6.70
2024-03-05T08:00:26.025Z,6.80
2024-03-05T08:02:54.900Z,6.80
2024-03-05T08:05:22.854Z,6.80
2024-03-05T08:07:50.916Z,6.90
2024-03-05T08:10:18.466Z,7.00
2024-03-05T08:12:49.577Z,7.00
2024-03-05T08:15:17.776Z,7.00
2024-03-05T08:17:49.655Z,7.10
2024-03-05T08:20:17.950Z,7.10
2024-03-05T08:22:47.594Z,7.20
2024-03-05T08:25:18.816Z,7.20
2024-03-05T08:27:55.648Z,7.20
2024-03-05T08:30:24.699Z,7.30
2024-03-05T08:32:54.148Z,7.40
2024-03-05T08:35:21.836Z,7.40
2024-03-05T08:37:51.225Z,7.50
2024-03-05T08:40:22.445Z,7.50
2024-03-05T08:42:57.141Z,7.60
2024-03-05T08:45:25.173Z,7.60
2024-03-05T08:47:56.834Z,7.60
2024-03-05T08:50:25.105Z,7.60
2024-03-05T08:52:52.059Z,7.60
2024-03-05T08:55:19.539Z,7.60
2024-03-05T08:57:46.929Z,7.70
2024-03-05T09:00:33.453Z,7.70
2024-03-05T09:03:09.501Z,7.80
2024-03-05T09:05:37.205Z,7.80
2024-03-05T09:08:06.646Z,7.70
2024-03-05T09:10:35.532Z,7.70
2024-03-05T09:13:05.070Z,7.70
2024-03-05T09:15:32.009Z,7.70
2024-03-05T09:17:59.248Z,7.70
2024-03-05T09:20:26.292Z,7.70
2024-03-05T09:22:55.558Z,7.60
2024-03-05T09:25:22.708Z,7.70
2024-03-05T09:27:49.672Z,7.70
2024-03-05T09:30:19.699Z,7.70
2024-03-05T09:32:48.184Z,7.60
2024-03-05T09:35:17.157Z,7.70
2024-03-05T09:37:47.030Z,7.60
2024-03-05T09:40:20.901Z,7.70
2024-03-05T09:42:48.673Z,7.70
2024-03-05T09:45:18.484Z,7.80
2024-03-05T09:47:49.006Z,7.80
2024-03-05T09:50:18.272Z,7.90
2024-03-05T09:52:48.093Z,8.10
2024-03-05T09:55:19.100Z,8.20
2024-03-05T09:57:49.393Z,8.30
2024-03-05T10:00:19.693Z,8.40
2024-03-05T10:02:49.184Z,8.50
2024-03-05T10:05:23.646Z,8.60
2024-03-05T10:07:51.010Z,8.60
2024-03-05T10:10:23.063Z,8.70
2024-03-05T10:12:53.651Z,8.70
2024-03-05T10:15:27.639Z,8.70
2024-03-05T10:17:56.664Z,8.70
2024-03-05T10:20:39.862Z,8.80
2024-03-05T10:23:08.546Z,8.90
2024-03-05T10:25:37.055Z,9.00
2024-03-05T10:28:05.194Z,9.00
2024-03-05T10:30:34.739Z,9.10
2024-03-05T10:33:04.211Z,9.20
2024-03-05T10:35:35.336Z,9.20
2024-03-05T10:38:04.983Z,9.30
2024-03-05T10:40:39.572Z,9.30
2024-03-05T10:43:08.348Z,9.40
2024-03-05T10:45:39.508Z,9.50
2024-03-05T10:48:12.209Z,9.60
2024-03-05T10:50:42.053Z,9.60
2024-03-05T10:53:10.671Z,9.60
2024-03-05T10:55:39.259Z,9.60
2024-03-05T10:58:20.120Z,9.70
2024-03-05T11:00:48.697Z,9.80
2024-03-05T11:03:18.437Z,9.80
2024-03-05T11:05:51.370Z,9.80
2024-03-05T11:08:21.167Z,9.80
2024-03-05T11:10:58.701Z,9.80
2024-03-05T11:13:27.688Z,9.80
2024-03-05T11:15:56.040Z,9.80
2024-03-05T11:18:34.604Z,9.80
2024-03-05T11:21:10.188Z,9.80
2024-03-05T11:23:43.075Z,9.80
2024-03-05T11:26:19.316Z,9.80
2024-03-05T11:28:46.328Z,9.70
2024-03-05T11:31:20.621Z,9.70
2024-03-05T11:33:58.876Z,9.70
2024-03-05T11:36:26.144Z,9.70
2024-03-05T11:39:08.538Z,9.60
2024-03-05T11:41:42.569Z,9.60
2024-03-05T11:44:12.786Z,9.60
2024-03-05T11:46:44.959Z,9.60
2024-03-05T12:03:05.047Z,9.60
2024-03-05T12:05:32.021Z,9.60
2024-03-05T12:08:09.900Z,9.70
2024-03-05T12:10:37.806Z,9.70
2024-03-05T12:13:06.315Z,9.60
2024-03-05T12:15:35.902Z,9.70
2024-03-05T12:18:12.462Z,9.70
2024-03-05T12:20:43.481Z,9.60
2024-03-05T12:23:12.165Z,9.60
2024-03-05T12:25:39.392Z,9.50
2024-03-05T12:28:06.828Z,9.50
2024-03-05T12:46:51.079Z,9.70
2024-03-05T14:08:21.747Z,9.50
2024-03-05T14:30:30.085Z,9.30
2024-03-05T14:33:00.986Z,9.40
2024-03-05T14:38:18.190Z,9.40
2024-03-05T14:40:45.066Z,9.40
2024-03-05T14:59:41.229Z,9.60
2024-03-05T15:10:17.299Z,9.70
2024-03-05T15:12:49.653Z,9.70
2024-03-05T15:15:17.796Z,9.70
2024-03-05T15:20:33.452Z,9.70
2024-03-05T15:28:21.215Z,9.60
2024-03-05T15:30:48.069Z,9.60
2024-03-05T15:33:15.094Z,9.60
2024-03-05T15:35:42.076Z,9.60
2024-03-05T15:38:09.494Z,9.50
2024-03-05T15:40:39.015Z,9.50
2024-03-05T15:43:08.250Z,9.50
2024-03-05T15:45:38.303Z,9.50
2024-03-05T15:48:06.518Z,9.40
2024-03-05T15:50:33.510Z,9.40
2024-03-05T15:53:03.403Z,9.40
2024-03-05T15:55:30.872Z,9.30
2024-03-05T15:58:09.337Z,9.30
2024-03-05T16:00:38.183Z,9.30
2024-03-05T16:03:13.879Z,9.20
2024-03-05T16:05:56.217Z,9.30
2024-03-05T16:08:31.455Z,9.20
2024-03-05T16:11:00.593Z,9.20
2024-03-05T16:16:04.203Z,9.30
2024-03-05T16:18:32.947Z,9.20
2024-03-05T16:23:32.232Z,9.20
2024-03-05T16:25:59.359Z,9.10
2024-03-05T16:28:26.507Z,9.10
2024-03-05T16:30:53.596Z,9.10
2024-03-05T16:33:20.660Z,9.00
2024-03-05T16:35:48.295Z,9.00
2024-03-05T16:38:15.781Z,9.00
2024-03-05T16:40:43.011Z,9.00
2024-03-05T16:43:11.423Z,8.90
2024-03-05T16:45:39.093Z,8.90
2024-03-05T16:48:30.016Z,8.90
2024-03-05T16:51:01.131Z,8.90
2024-03-05T16:53:28.341Z,8.90
2024-03-05T16:55:56.490Z,8.80
2024-03-05T16:58:26.375Z,8.80
2024-03-05T17:00:56.231Z,8.70
2024-03-05T17:03:28.389Z,8.80
2024-03-05T17:05:55.512Z,8.80
2024-03-05T17:08:25.053Z,8.80
2024-03-05T17:11:02.579Z,8.90
2024-03-05T17:13:33.318Z,8.90
2024-03-05T17:16:02.010Z,8.90
2024-03-05T17:18:33.520Z,8.80
2024-03-05T17:21:01.060Z,8.80
2024-03-05T17:23:28.624Z,8.70
2024-03-05T17:25:59.492Z,8.70
2024-03-05T17:28:30.571Z,8.70
2024-03-05T17:31:00.811Z,8.70
2024-03-05T17:33:27.989Z,8.70
2024-03-05T17:35:58.940Z,8.70
2024-03-05T17:38:31.568Z,8.70
2024-03-05T17:41:00.212Z,8.70
2024-03-05T17:43:28.670Z,8.60
2024-03-05T17:45:59.413Z,8.60
2024-03-05T17:48:28.841Z,8.60
2024-03-05T17:51:00.524Z,8.60
2024-03-05T17:53:40.037Z,8.60
2024-03-05T18:06:58.324Z,8.40
2024-03-05T18:09:25.370Z,8.40
2024-03-05T18:11:54.489Z,8.40
2024-03-05T18:14:27.598Z,8.40
2024-03-05T18:16:55.837Z,8.30
2024-03-05T18:19:22.788Z,8.30
2024-03-05T18:21:49.829Z,8.30
2024-03-05T18:24:17.611Z,8.30
2024-03-05T18:26:45.769Z,8.30
2024-03-05T18:29:16.640Z,8.30
2024-03-05T18:31:49.500Z,8.30
2024-03-05T18:34:16.555Z,8.30
2024-03-05T18:36:43.564Z,8.30
2024-03-05T18:39:26.809Z,8.30
2024-03-05T18:41:55.870Z,8.20
2024-03-05T18:44:26.837Z,8.30
2024-03-05T18:46:55.188Z,8.20
2024-03-05T18:49:22.849Z,8.20
2024-03-05T18:51:53.736Z,8.10
2024-03-05T18:54:21.024Z,8.10
2024-03-05T18:56:48.212Z,8.10
2024-03-05T18:59:18.177Z,8.10
2024-03-05T19:01:48.865Z,8.10
2024-03-05T19:04:17.897Z,8.00
2024-03-05T19:06:45.296Z,8.00
2024-03-05T19:09:19.598Z,7.90
2024-03-05T19:11:48.477Z,7.90
2024-03-05T19:14:19.157Z,7.90
2024-03-05T19:19:30.112Z,7.90
2024-03-05T19:21:59.908Z,7.90
2024-03-05T19:24:30.831Z,7.90
2024-03-05T19:26:58.463Z,8.00
2024-03-05T19:29:29.615Z,8.10
2024-03-05T19:31:58.292Z,8.10
2024-03-05T19:34:26.765Z,8.00
2024-03-05T19:36:55.368Z,8.00
2024-03-05T19:39:24.629Z,8.00
2024-03-05T19:41:53.477Z,7.90
2024-03-05T19:44:22.541Z,7.90
2024-03-05T19:46:52.123Z,7.90
2024-03-05T19:49:21.024Z,7.80
2024-03-05T19:52:22.232Z,7.90
2024-03-05T19:54:52.182Z,7.90
2024-03-05T19:57:22.002Z,7.80
2024-03-05T19:59:50.564Z,7.90
2024-03-05T20:02:19.005Z,7.90
2024-03-05T20:04:47.431Z,7.80
2024-03-05T20:07:15.930Z,7.80
2024-03-05T20:09:44.473Z,7.80
2024-03-05T20:12:18.399Z,7.80
2024-03-05T20:17:28.368Z,7.80
2024-03-05T20:20:18.784Z,7.90
2024-03-05T20:22:48.377Z,7.90
2024-03-05T20:25:23.862Z,7.80
2024-03-05T20:27:56.374Z,7.80
2024-03-05T20:30:24.083Z,7.80
2024-03-05T20:32:53.131Z,7.70
2024-03-05T20:35:20.760Z,7.70
2024-03-05T20:37:49.325Z,7.60
2024-03-05T20:40:17.777Z,7.60
2024-03-05T20:42:49.445Z,7.60
2024-03-05T20:45:17.501Z,7.60
2024-03-05T20:47:44.733Z,7.60
2024-03-05T20:50:25.554Z,7.50
2024-03-05T20:53:01.787Z,7.60
2024-03-05T20:55:36.238Z,7.60
2024-03-05T21:00:48.604Z,7.50
2024-03-05T21:03:19.936Z,7.60
2024-03-05T21:05:47.004Z,7.60
2024-03-05T21:08:14.119Z,7.60
2024-03-05T21:10:43.866Z,7.60
2024-03-05T21:13:11.008Z,7.60
2024-03-05T21:15:40.903Z,7.50
2024-03-05T21:18:11.078Z,7.50
2024-03-05T21:20:38.145Z,7.50
2024-03-05T21:23:05.717Z,7.60
2024-03-05T21:25:40.283Z,7.70
2024-03-05T21:28:17.658Z,7.70
2024-03-05T21:30:45.576Z,7.60
2024-03-05T21:33:12.516Z,7.60
2024-03-05T21:35:40.994Z,7.60
2024-03-05T21:38:08.458Z,7.60
2024-03-05T21:40:35.852Z,7.70
2024-03-05T21:43:04.966Z,7.70
2024-03-05T21:45:32.796Z,7.70
2024-03-05T21:47:59.887Z,7.60
2024-03-05T21:50:27.049Z,7.60
2024-03-05T21:52:56.466Z,7.60
2024-03-05T21:55:23.514Z,7.60
2024-03-05T21:57:50.576Z,7.60
2024-03-05T22:00:18.326Z,7.60
2024-03-05T22:02:47.665Z,7.60
2024-03-05T22:05:14.826Z,7.60
2024-03-05T22:07:42.085Z,7.60
2024-03-05T22:10:09.923Z,7.60
2024-03-05T22:12:41.277Z,7.60
2024-03-05T22:15:11.773Z,7.60
2024-03-05T22:17:39.401Z,7.60
2024-03-05T22:20:08.281Z,7.60
2024-03-05T22:22:36.311Z,7.60
2024-03-05T22:25:07.878Z,7.60
2024-03-05T22:27:35.156Z,7.60
2024-03-05T22:30:04.287Z,7.60
2024-03-05T22:35:12.353Z,7.60
2024-03-05T22:37:42.098Z,7.60
2024-03-05T22:40:11.822Z,7.60
2024-03-05T22:42:39.677Z,7.60
2024-03-05T22:45:10.393Z,7.60
2024-03-05T22:47:37.711Z,7.60
2024-03-05T22:50:07.619Z,7.50
2024-03-05T22:52:35.026Z,7.50
2024-03-05T22:55:02.239Z,7.50
2024-03-05T22:57:29.157Z,7.40
2024-03-05T22:59:56.180Z,7.30
2024-03-05T23:02:23.306Z,7.30
2024-03-05T23:04:50.459Z,7.20
2024-03-05T23:07:19.147Z,7.20
2024-03-05T23:09:46.451Z,7.10
2024-03-05T23:12:16.546Z,7.20
2024-03-05T23:14:43.592Z,7.20
2024-03-05T23:17:17.278Z,7.20
2024-03-05T23:19:45.502Z,7.30
2024-03-05T23:22:13.809Z,7.30
2024-03-05T23:24:41.506Z,7.30
2024-03-05T23:27:08.950Z,7.30
2024-03-05T23:29:41.488Z,7.30
2024-03-05T23:32:10.288Z,7.40
2024-03-05T23:34:37.450Z,7.30
2024-03-05T23:37:05.840Z,7.30
2024-03-05T23:39:35.292Z,7.30
2024-03-05T23:42:05.946Z,7.30
2024-03-05T23:44:34.535Z,7.30
2024-03-05T23:47:02.021Z,7.30
2024-03-05T23:49:29.592Z,7.30
2024-03-05T23:51:58.685Z,7.30
2024-03-05T23:54:36.315Z,7.30
2024-03-05T23:57:04.243Z,7.20
2024-03-05T23:59:31.506Z,7.30
